createdAt,value
2017-08-04T00:00:09.424Z,17.50
2017-08-04T00:02:36.851Z,18.00
2017-08-04T00:05:05.067Z,17.40
2017-08-04T00:07:32.490Z,17.40
2017-08-04T00:09:59.911Z,17.20
2017-08-04T00:12:27.328Z,17.10
2017-08-04T00:14:54.774Z,16.80
2017-08-04T00:17:22.187Z,17.40
2017-08-04T00:19:50.383Z,17.50
2017-08-04T00:22:17.795Z,17.90
2017-08-04T00:24:45.238Z,18.60
2017-08-04T00:27:12.656Z,18.70
2017-08-04T00:29:40.083Z,18.90
2017-08-04T00:32:08.260Z,20.60
2017-08-04T00:34:35.680Z,20.10
2017-08-04T00:37:03.121Z,20.50
2017-08-04T00:39:30.524Z,20.70
2017-08-04T00:41:58.719Z,22.00
2017-08-04T00:44:26.135Z,22.00
2017-08-04T00:46:53.571Z,22.40
2017-08-04T00:49:20.995Z,22.90
2017-08-04T00:51:48.428Z,23.30
2017-08-04T00:54:16.599Z,24.20
2017-08-04T00:56:44.117Z,23.60
2017-08-04T00:59:11.570Z,23.90
2017-08-04T01:01:38.995Z,24.10
2017-08-04T01:04:06.409Z,24.00
2017-08-04T01:06:33.847Z,24.70
2017-08-04T01:09:01.272Z,24.70
2017-08-04T01:11:28.743Z,25.10
2017-08-04T01:13:56.160Z,25.00
2017-08-04T01:16:23.584Z,25.10
2017-08-04T01:18:51.011Z,25.00
2017-08-04T01:21:18.427Z,24.90
2017-08-04T01:23:45.855Z,24.90
2017-08-04T01:26:14.115Z,24.90
2017-08-04T01:28:41.642Z,24.90
2017-08-04T01:31:09.057Z,24.90
2017-08-04T01:33:36.489Z,24.90
2017-08-04T01:36:03.904Z,25.30
2017-08-04T01:38:31.343Z,25.80
2017-08-04T01:40:58.763Z,25.40
2017-08-04T01:43:26.298Z,25.80
2017-08-04T01:45:53.707Z,26.50
2017-08-04T01:48:21.159Z,26.70
2017-08-04T01:50:50.739Z,27.10
2017-08-04T01:53:18.153Z,27.20
2017-08-04T01:55:45.578Z,27.50
2017-08-04T01:58:12.995Z,27.60
2017-08-04T02:00:40.419Z,27.90
2017-08-04T02:03:07.867Z,28.30
2017-08-04T02:05:35.291Z,28.50
2017-08-04T02:08:02.715Z,28.40
2017-08-04T02:10:30.259Z,28.20
2017-08-04T02:12:57.653Z,28.30
2017-08-04T02:15:25.084Z,28.20
2017-08-04T02:17:52.516Z,28.30
2017-08-04T02:20:19.935Z,28.50
2017-08-04T02:22:47.363Z,28.40
2017-08-04T02:25:14.860Z,28.40
2017-08-04T02:27:42.280Z,28.40
2017-08-04T02:30:10.496Z,28.30
2017-08-04T02:32:37.928Z,28.30
2017-08-04T02:35:05.355Z,28.40
2017-08-04T02:37:32.770Z,28.70
2017-08-04T02:40:00.224Z,28.50
2017-08-04T02:42:27.663Z,28.70
2017-08-04T02:44:55.080Z,28.70
2017-08-04T02:47:22.516Z,29.00
2017-08-04T02:49:49.932Z,29.30
2017-08-04T02:52:17.396Z,29.20
2017-08-04T02:54:44.815Z,29.50
2017-08-04T02:57:12.245Z,29.50
2017-08-04T02:59:39.672Z,29.00
2017-08-04T03:02:07.099Z,29.20
2017-08-04T03:04:34.514Z,29.50
2017-08-04T03:07:01.941Z,29.70
2017-08-04T03:09:29.355Z,29.60
2017-08-04T03:11:56.784Z,29.60
2017-08-04T03:14:24.315Z,29.90
2017-08-04T03:16:51.756Z,30.00
2017-08-04T03:19:19.170Z,30.20
2017-08-04T03:21:47.367Z,32.20
2017-08-04T03:24:14.795Z,31.50
2017-08-04T03:26:42.204Z,31.50
2017-08-04T03:29:09.639Z,31.60
2017-08-04T03:31:37.057Z,31.90
2017-08-04T03:34:04.482Z,32.10
2017-08-04T03:36:31.904Z,33.50
2017-08-04T03:38:59.327Z,34.50
2017-08-04T03:41:26.752Z,34.00
2017-08-04T03:43:54.199Z,34.40
2017-08-04T03:46:21.607Z,35.80
2017-08-04T03:48:49.036Z,35.50
2017-08-04T03:51:16.464Z,35.70
2017-08-04T03:53:43.883Z,36.20
2017-08-04T03:56:11.305Z,36.80
2017-08-04T04:01:29.208Z,36.90
2017-08-04T04:03:56.640Z,36.90
2017-08-04T04:06:24.071Z,36.90
2017-08-04T04:08:51.507Z,36.90
2017-08-04T04:11:18.920Z,37.30
2017-08-04T04:13:46.359Z,37.80
2017-08-04T04:16:13.780Z,37.90
2017-08-04T04:18:41.204Z,38.20
2017-08-04T04:21:08.620Z,38.70
2017-08-04T04:23:36.816Z,38.70
2017-08-04T04:26:04.248Z,38.60
2017-08-04T04:28:31.689Z,40.20
2017-08-04T04:30:59.107Z,40.10
2017-08-04T04:33:26.540Z,40.70
2017-08-04T04:35:53.955Z,41.30
2017-08-04T04:38:21.380Z,40.10
2017-08-04T04:40:48.817Z,40.00
2017-08-04T04:43:16.223Z,40.00
2017-08-04T04:45:43.652Z,40.20
2017-08-04T04:48:11.085Z,39.30
2017-08-04T04:50:38.504Z,39.10
2017-08-04T04:53:05.925Z,38.60
2017-08-04T04:55:33.412Z,39.10
2017-08-04T04:58:00.833Z,39.30
2017-08-04T05:00:28.265Z,38.70
2017-08-04T05:02:55.684Z,39.20
2017-08-04T05:05:23.880Z,38.20
2017-08-04T05:07:51.308Z,38.10
2017-08-04T05:10:18.737Z,38.50
2017-08-04T05:12:46.157Z,36.80
2017-08-04T05:15:13.597Z,38.70
2017-08-04T05:17:41.036Z,38.50
2017-08-04T05:20:09.240Z,39.50
2017-08-04T05:22:36.705Z,38.80
2017-08-04T05:48:44.127Z,38.60
2017-08-04T05:51:11.538Z,32.70
2017-08-04T05:53:39.144Z,32.70
2017-08-04T05:56:06.563Z,32.80
2017-08-04T05:58:34.771Z,32.70
2017-08-04T06:01:02.183Z,32.70
2017-08-04T06:03:29.612Z,32.30
2017-08-04T06:05:57.050Z,31.80
2017-08-04T06:08:24.477Z,31.50
2017-08-04T06:10:51.913Z,30.30
2017-08-04T06:13:20.104Z,30.60
2017-08-04T06:15:47.535Z,30.00
2017-08-04T06:18:14.955Z,29.30
2017-08-04T06:20:42.417Z,28.70
2017-08-04T06:23:09.838Z,28.70
2017-08-04T06:25:37.272Z,28.70
2017-08-04T06:28:05.449Z,28.50
2017-08-04T06:30:32.880Z,28.40
2017-08-04T06:33:00.303Z,28.10
2017-08-04T06:35:27.762Z,28.00
2017-08-04T06:37:55.175Z,26.70
2017-08-04T06:40:23.403Z,26.80
2017-08-04T06:42:50.823Z,26.80
2017-08-04T06:45:18.245Z,26.20
2017-08-04T06:47:45.683Z,26.60
2017-08-04T06:50:24.923Z,26.10
2017-08-04T06:53:04.197Z,26.30
2017-08-04T06:55:37.531Z,26.60
2017-08-04T06:58:04.966Z,26.70
2017-08-04T07:00:32.389Z,26.70
2017-08-04T07:02:59.810Z,26.30
2017-08-04T07:05:27.256Z,25.80
2017-08-04T07:07:54.664Z,26.20
2017-08-04T07:10:22.093Z,24.00
2017-08-04T07:12:49.530Z,24.30
2017-08-04T07:15:16.960Z,24.60
2017-08-04T07:17:44.615Z,23.10
2017-08-04T07:20:12.180Z,23.90
2017-08-04T07:22:39.612Z,24.40
2017-08-04T07:25:07.036Z,24.50
2017-08-04T07:27:34.477Z,23.90
2017-08-04T07:30:01.891Z,23.60
2017-08-04T07:32:29.324Z,23.50
2017-08-04T07:34:57.550Z,24.00
2017-08-04T07:37:24.990Z,23.60
2017-08-04T07:39:52.612Z,23.50
2017-08-04T07:42:20.041Z,23.80
2017-08-04T07:44:47.469Z,23.50
2017-08-04T07:47:14.887Z,23.50
2017-08-04T07:49:42.336Z,23.80
2017-08-04T07:52:09.923Z,24.10
2017-08-04T07:54:37.351Z,23.60
2017-08-04T07:57:05.316Z,23.60
2017-08-04T07:59:32.732Z,22.30
2017-08-04T08:02:00.169Z,22.40
2017-08-04T08:04:27.580Z,22.70
2017-08-04T08:06:55.009Z,21.80
2017-08-04T08:09:22.446Z,21.60
2017-08-04T08:11:49.864Z,22.10
2017-08-04T08:14:17.298Z,22.40
2017-08-04T08:16:45.532Z,22.60
2017-08-04T08:19:13.001Z,22.50
2017-08-04T08:21:40.417Z,22.50
2017-08-04T08:24:07.832Z,22.00
2017-08-04T08:26:35.256Z,22.10
2017-08-04T08:29:02.708Z,22.00
2017-08-04T08:31:30.161Z,22.00
2017-08-04T08:33:57.602Z,22.10
2017-08-04T08:36:25.036Z,22.90
2017-08-04T08:38:52.461Z,23.70
2017-08-04T08:41:20.662Z,23.50
2017-08-04T08:43:48.067Z,22.80
2017-08-04T08:46:15.507Z,22.70
2017-08-04T08:48:42.915Z,22.90
2017-08-04T08:51:10.352Z,23.50
2017-08-04T08:53:37.780Z,23.70
2017-08-04T08:56:05.204Z,23.30
2017-08-04T08:58:32.644Z,22.90
2017-08-04T09:01:00.076Z,21.60
2017-08-04T09:03:27.495Z,21.40
2017-08-04T09:05:54.941Z,20.50
2017-08-04T09:08:22.355Z,20.50
2017-08-04T09:10:49.793Z,20.10
2017-08-04T09:13:17.217Z,19.60
2017-08-04T09:15:44.644Z,20.10
2017-08-04T09:18:12.069Z,20.10
2017-08-04T09:20:40.264Z,20.00
2017-08-04T09:23:07.697Z,20.00
2017-08-04T09:25:35.116Z,19.70
2017-08-04T09:28:02.568Z,20.00
2017-08-04T09:30:30.070Z,20.60
2017-08-04T09:32:57.500Z,21.10
2017-08-04T09:35:24.937Z,20.20
2017-08-04T09:37:52.367Z,20.30
2017-08-04T09:40:19.820Z,21.00
2017-08-04T09:42:47.252Z,20.20
2017-08-04T09:45:15.435Z,20.10
2017-08-04T09:47:42.868Z,20.10
2017-08-04T09:50:10.294Z,20.20
2017-08-04T09:52:37.735Z,19.90
2017-08-04T09:55:05.143Z,20.00
2017-08-04T09:57:33.345Z,19.30
2017-08-04T10:00:00.765Z,19.40
2017-08-04T10:02:28.221Z,18.70
2017-08-04T10:04:55.653Z,19.40
2017-08-04T10:07:23.091Z,19.80
2017-08-04T10:09:50.520Z,19.60
2017-08-04T10:12:17.976Z,19.70
2017-08-04T10:14:45.437Z,19.50
2017-08-04T10:17:12.844Z,19.40
2017-08-04T10:19:40.272Z,18.80
2017-08-04T10:22:07.699Z,16.70
2017-08-04T10:24:35.125Z,17.30
2017-08-04T10:27:02.552Z,16.10
2017-08-04T10:29:29.993Z,16.00
2017-08-04T10:31:57.418Z,16.10
2017-08-04T10:34:24.864Z,16.60
2017-08-04T10:36:52.279Z,16.60
2017-08-04T10:39:19.712Z,16.50
2017-08-04T10:41:47.225Z,16.70
2017-08-04T10:44:14.650Z,16.40
2017-08-04T10:46:42.069Z,16.90
2017-08-04T10:49:09.496Z,16.50
2017-08-04T10:51:37.680Z,15.40
2017-08-04T10:54:05.173Z,15.40
2017-08-04T10:56:32.592Z,14.10
2017-08-04T10:59:00.071Z,14.00
2017-08-04T11:01:27.493Z,13.70
2017-08-04T11:03:54.908Z,13.60
2017-08-04T11:06:22.347Z,13.80
2017-08-04T11:08:49.784Z,14.40
2017-08-04T11:11:17.227Z,14.20
2017-08-04T11:13:44.652Z,13.60
2017-08-04T11:16:12.076Z,13.50
2017-08-04T11:18:39.500Z,14.90
2017-08-04T11:21:06.928Z,15.60
2017-08-04T11:23:34.357Z,15.30
2017-08-04T11:26:01.792Z,15.30
2017-08-04T11:28:29.223Z,14.70
2017-08-04T11:30:56.673Z,15.00
2017-08-04T11:33:24.095Z,14.30
2017-08-04T11:35:51.529Z,14.70
2017-08-04T11:38:18.974Z,14.20
2017-08-04T11:40:46.602Z,14.70
2017-08-04T11:43:14.251Z,14.30
2017-08-04T11:45:42.234Z,14.40
2017-08-04T11:48:09.680Z,13.80
2017-08-04T11:50:37.128Z,14.20
2017-08-04T11:53:05.348Z,13.60
2017-08-04T11:55:32.785Z,13.60
2017-08-04T11:58:00.213Z,13.30
2017-08-04T12:00:27.645Z,13.60
2017-08-04T12:02:55.068Z,13.70
2017-08-04T12:05:22.488Z,12.00
2017-08-04T12:07:49.916Z,12.60
2017-08-04T12:10:17.334Z,12.20
2017-08-04T12:12:44.783Z,12.00
2017-08-04T12:15:12.204Z,12.30
2017-08-04T12:17:39.825Z,12.40
2017-08-04T12:20:07.267Z,11.10
2017-08-04T12:22:34.712Z,11.30
2017-08-04T12:25:02.128Z,10.90
2017-08-04T12:27:30.319Z,10.80
2017-08-04T12:29:57.739Z,10.80
2017-08-04T12:32:25.188Z,11.10
2017-08-04T12:34:52.628Z,10.50
2017-08-04T12:37:20.083Z,10.70
2017-08-04T12:39:47.499Z,8.20
2017-08-04T12:42:14.970Z,8.70
2017-08-04T12:44:42.446Z,8.70
2017-08-04T12:47:09.854Z,6.80
2017-08-04T12:49:37.305Z,6.50
2017-08-04T12:52:05.517Z,5.90
2017-08-04T12:54:32.941Z,5.90
2017-08-04T12:57:00.352Z,4.40
2017-08-04T12:59:27.783Z,3.80
2017-08-04T13:01:55.345Z,2.70
2017-08-04T13:04:22.773Z,2.60
2017-08-04T13:06:50.193Z,1.80
2017-08-04T13:09:17.635Z,1.40
2017-08-04T13:11:45.075Z,2.20
2017-08-04T13:14:12.528Z,2.70
2017-08-04T13:16:40.148Z,3.10
2017-08-04T13:19:07.616Z,1.50
2017-08-04T13:21:35.064Z,1.00
2017-08-04T13:24:02.496Z,1.00
2017-08-04T13:26:30.105Z,1.00
2017-08-04T13:28:57.603Z,1.20
2017-08-04T13:31:25.018Z,1.40
2017-08-04T13:33:52.473Z,1.00
2017-08-04T13:36:19.929Z,1.00
2017-08-04T13:38:49.256Z,2.40
2017-08-04T13:41:16.767Z,2.30
2017-08-04T13:43:44.267Z,2.90
2017-08-04T13:46:12.087Z,3.30
2017-08-04T13:48:39.583Z,4.20
2017-08-04T13:51:07.029Z,4.20
2017-08-04T13:53:34.477Z,5.50
2017-08-04T13:56:01.891Z,6.10
2017-08-04T13:58:29.327Z,5.30
2017-08-04T14:00:56.759Z,4.60
2017-08-04T14:03:24.249Z,5.00
2017-08-04T14:05:51.732Z,4.30
2017-08-04T14:08:19.239Z,4.50
2017-08-04T14:10:46.672Z,5.50
2017-08-04T14:15:48.008Z,6.30
2017-08-04T14:18:15.437Z,6.70
2017-08-04T14:20:42.861Z,5.10
2017-08-04T14:23:10.280Z,5.60
2017-08-04T14:25:37.704Z,5.80
2017-08-04T14:28:05.116Z,5.80
2017-08-04T14:30:32.563Z,5.90
2017-08-04T14:32:59.977Z,6.50
2017-08-04T14:35:28.195Z,6.80
2017-08-04T14:37:55.607Z,6.70
2017-08-04T14:40:23.025Z,6.90
2017-08-04T14:42:50.458Z,6.80
2017-08-04T14:45:17.913Z,6.00
2017-08-04T14:47:45.359Z,6.30
2017-08-04T14:50:12.772Z,6.10
2017-08-04T14:52:40.232Z,5.00
2017-08-04T14:55:07.640Z,4.00
2017-08-04T14:57:35.074Z,4.40
2017-08-04T15:00:02.800Z,5.70
2017-08-04T15:02:30.465Z,4.80
2017-08-04T15:04:57.891Z,5.20
2017-08-04T15:07:25.337Z,4.40
2017-08-04T15:09:52.755Z,3.30
2017-08-04T15:12:20.194Z,3.40
2017-08-04T15:14:48.368Z,1.00
2017-08-04T15:17:15.820Z,1.00
2017-08-04T15:19:43.235Z,1.00
2017-08-04T15:22:10.716Z,1.00
2017-08-04T15:24:38.145Z,1.00
2017-08-04T15:27:05.571Z,1.00
2017-08-04T15:29:32.995Z,1.00
2017-08-04T15:32:01.181Z,1.00
2017-08-04T15:34:28.605Z,1.00
2017-08-04T15:36:56.025Z,1.00
2017-08-04T15:39:23.453Z,1.00
2017-08-04T15:41:51.631Z,1.00
2017-08-04T15:44:19.060Z,1.00
2017-08-04T15:46:46.776Z,1.00
2017-08-04T15:49:14.175Z,1.00
2017-08-04T15:51:41.932Z,1.00
2017-08-04T15:54:09.364Z,1.00
2017-08-04T15:56:36.783Z,1.00
2017-08-04T15:59:04.216Z,1.00
2017-08-04T16:01:31.644Z,1.00
2017-08-04T16:04:00.259Z,1.00
2017-08-04T16:06:27.690Z,1.00
2017-08-04T16:08:55.104Z,1.00
2017-08-04T16:11:22.528Z,1.00
2017-08-04T16:13:50.716Z,1.00
2017-08-04T16:16:18.151Z,1.00
2017-08-04T16:18:45.572Z,1.00
2017-08-04T16:21:13.004Z,1.00
2017-08-04T16:23:40.415Z,1.00
2017-08-04T16:26:08.612Z,1.80
2017-08-04T16:28:36.039Z,1.80
2017-08-04T16:31:03.549Z,1.90
2017-08-04T16:33:30.964Z,3.10
2017-08-04T16:35:58.409Z,4.00
2017-08-04T16:38:25.868Z,4.20
2017-08-04T16:40:53.281Z,4.50
2017-08-04T16:43:20.708Z,5.30
2017-08-04T16:45:48.140Z,5.70
2017-08-04T16:48:16.324Z,6.10
2017-08-04T16:50:43.783Z,6.10
2017-08-04T16:53:11.227Z,6.10
2017-08-04T16:55:38.750Z,7.40
2017-08-04T16:58:06.201Z,8.10
2017-08-04T17:00:33.669Z,8.40
2017-08-04T17:03:01.105Z,8.10
2017-08-04T17:05:28.515Z,7.90
2017-08-04T17:07:55.956Z,7.90
2017-08-04T17:10:23.376Z,7.90
2017-08-04T17:12:50.803Z,8.30
2017-08-04T17:15:18.242Z,8.50
2017-08-04T17:17:45.667Z,8.90
2017-08-04T17:20:13.092Z,9.20
2017-08-04T17:22:40.529Z,9.10
2017-08-04T17:25:07.956Z,9.10
2017-08-04T17:27:35.375Z,8.70
2017-08-04T17:30:02.809Z,8.50
2017-08-04T17:32:30.262Z,8.90
2017-08-04T17:34:57.698Z,9.10
2017-08-04T17:37:25.120Z,9.60
2017-08-04T17:39:52.543Z,9.80
2017-08-04T17:42:19.975Z,9.90
2017-08-04T17:44:47.543Z,9.90
2017-08-04T17:47:14.968Z,9.80
2017-08-04T17:49:42.399Z,9.60
2017-08-04T17:52:09.812Z,9.60
2017-08-04T17:54:37.272Z,9.60
2017-08-04T17:57:04.705Z,9.80
2017-08-04T17:59:32.147Z,10.20
2017-08-04T18:01:59.680Z,10.30
2017-08-04T18:04:27.215Z,10.70
2017-08-04T18:06:55.416Z,10.60
2017-08-04T18:09:23.622Z,10.90
2017-08-04T18:11:51.040Z,10.90
2017-08-04T18:14:18.475Z,11.00
2017-08-04T18:16:46.433Z,11.00
2017-08-04T18:19:13.856Z,11.00
2017-08-04T18:21:41.284Z,11.00
2017-08-04T18:24:08.832Z,11.40
2017-08-04T18:26:37.020Z,11.70
2017-08-04T18:29:04.537Z,11.70
2017-08-04T18:31:31.970Z,12.00
2017-08-04T18:33:59.446Z,12.20
2017-08-04T18:36:26.902Z,12.20
2017-08-04T18:38:54.321Z,12.40
2017-08-04T18:41:21.752Z,12.30
2017-08-04T18:43:49.178Z,12.70
2017-08-04T18:46:16.611Z,13.00
2017-08-04T18:48:44.049Z,12.80
2017-08-04T18:51:11.473Z,12.60
2017-08-04T18:53:39.662Z,12.90
2017-08-04T18:56:07.103Z,12.90
2017-08-04T18:58:34.537Z,12.80
2017-08-04T19:01:01.972Z,13.10
2017-08-04T19:03:29.396Z,12.70
2017-08-04T19:05:56.827Z,12.60
2017-08-04T19:08:25.016Z,12.80
2017-08-04T19:10:52.498Z,12.80
2017-08-04T19:13:19.911Z,12.40
2017-08-04T19:15:47.358Z,12.50
2017-08-04T19:18:14.793Z,13.00
2017-08-04T19:20:42.288Z,13.30
2017-08-04T19:23:09.724Z,13.80
2017-08-04T19:25:37.145Z,13.00
2017-08-04T19:28:04.619Z,12.90
2017-08-04T19:30:32.045Z,13.30
2017-08-04T19:32:59.471Z,13.10
2017-08-04T19:35:26.909Z,13.20
2017-08-04T19:37:55.108Z,14.40
2017-08-04T19:40:22.546Z,14.00
2017-08-04T19:42:49.963Z,15.10
2017-08-04T19:45:17.396Z,15.20
2017-08-04T19:47:44.825Z,15.30
2017-08-04T19:50:12.253Z,15.30
2017-08-04T19:52:39.765Z,15.30
2017-08-04T19:55:07.184Z,15.50
2017-08-04T19:57:35.384Z,15.90
2017-08-04T20:00:02.844Z,15.90
2017-08-04T20:02:30.288Z,15.90
2017-08-04T20:04:57.730Z,15.60
2017-08-04T20:07:25.163Z,15.50
2017-08-04T20:09:52.588Z,16.10
2017-08-04T20:12:20.053Z,15.50
2017-08-04T20:14:47.473Z,16.00
2017-08-04T20:17:14.900Z,17.90
2017-08-04T20:19:43.121Z,16.10
2017-08-04T20:22:10.556Z,16.10
2017-08-04T20:24:37.983Z,17.10
2017-08-04T20:27:05.413Z,16.80
2017-08-04T20:29:32.864Z,17.20
2017-08-04T20:32:00.296Z,17.80
2017-08-04T20:34:27.748Z,18.10
2017-08-04T20:36:55.167Z,17.70
2017-08-04T20:39:22.616Z,16.80
2017-08-04T20:41:50.821Z,17.70
2017-08-04T20:44:18.264Z,17.70
2017-08-04T20:46:45.696Z,18.10
2017-08-04T20:49:13.129Z,17.90
2017-08-04T20:51:40.561Z,16.40
2017-08-04T20:54:08.019Z,17.30
2017-08-04T20:56:35.441Z,17.30
2017-08-04T20:59:02.896Z,16.40
2017-08-04T21:01:30.345Z,17.10
2017-08-04T21:03:58.560Z,17.20
2017-08-04T21:06:25.998Z,17.20
2017-08-04T21:08:53.416Z,17.20
2017-08-04T21:11:20.853Z,17.30
2017-08-04T21:13:48.274Z,17.30
2017-08-04T21:16:15.706Z,17.20
2017-08-04T21:18:43.124Z,17.30
2017-08-04T21:21:10.572Z,17.20
2017-08-04T21:23:37.993Z,17.50
2017-08-04T21:26:05.420Z,17.70
2017-08-04T21:28:32.872Z,18.10
2017-08-04T21:31:00.896Z,18.40
2017-08-04T21:33:28.335Z,18.40
2017-08-04T21:35:55.765Z,18.60
2017-08-04T21:38:23.184Z,18.50
2017-08-04T21:40:50.626Z,18.60
2017-08-04T21:43:18.036Z,18.50
2017-08-04T21:45:45.483Z,18.50
2017-08-04T21:48:12.908Z,18.90
2017-08-04T21:50:40.328Z,19.20
2017-08-04T21:53:08.913Z,19.50
2017-08-04T21:55:36.333Z,19.80
2017-08-04T21:58:03.763Z,19.90
2017-08-04T22:00:31.188Z,20.10
2017-08-04T22:02:58.615Z,20.40
2017-08-04T22:05:26.048Z,20.60
2017-08-04T22:07:54.248Z,21.00
2017-08-04T22:10:21.675Z,20.90
2017-08-04T22:12:49.110Z,21.00
2017-08-04T22:15:16.528Z,21.70
2017-08-04T22:17:44.006Z,21.20
2017-08-04T22:20:11.418Z,22.40
2017-08-04T22:22:38.847Z,22.40
2017-08-04T22:25:07.061Z,21.70
2017-08-04T22:27:34.491Z,21.40
2017-08-04T22:30:01.927Z,21.80
2017-08-04T22:32:29.339Z,22.40
2017-08-04T22:34:56.768Z,22.90
2017-08-04T22:37:24.198Z,24.70
2017-08-04T22:39:52.383Z,24.60
2017-08-04T22:42:19.815Z,24.50
2017-08-04T22:44:47.257Z,24.50
2017-08-04T22:47:14.683Z,24.60
2017-08-04T22:49:42.128Z,24.60
2017-08-04T22:52:09.557Z,24.70
2017-08-04T22:54:37.768Z,24.90
2017-08-04T22:57:05.204Z,24.90
2017-08-04T22:59:32.629Z,25.10
2017-08-04T23:02:00.061Z,25.50
2017-08-04T23:04:27.497Z,25.50
2017-08-04T23:06:54.941Z,25.50
2017-08-04T23:09:22.373Z,25.50
2017-08-04T23:11:49.816Z,25.50
2017-08-04T23:14:18.006Z,26.20
2017-08-04T23:16:45.437Z,26.20
2017-08-04T23:19:12.868Z,26.70
2017-08-04T23:21:40.293Z,27.10
2017-08-04T23:24:07.716Z,27.40
2017-08-04T23:26:35.917Z,26.10
2017-08-04T23:29:03.349Z,26.10
2017-08-04T23:31:30.784Z,26.70
2017-08-04T23:33:58.206Z,26.80
2017-08-04T23:36:25.654Z,26.80
2017-08-04T23:38:53.080Z,27.90
2017-08-04T23:41:20.674Z,26.90
2017-08-04T23:43:48.096Z,26.70
2017-08-04T23:46:15.521Z,26.90
2017-08-04T23:48:42.989Z,26.80
2017-08-04T23:51:10.416Z,27.10
2017-08-04T23:53:37.861Z,27.60
2017-08-04T23:56:05.303Z,27.40
2017-08-04T23:58:32.731Z,27.70
